sensor_id;sensor_type;location;lat;lon;timestamp;pressure;altitude;pressure_sealevel;temperature;humidity
62458;BME280;48509;52.122;5.250;2023-02-24T00:02:36;101630.0;;;3.02;100.0
62458;BME280;48509;52.122;5.250;2023-02-24T00:04:12;101628.0;;;2.96;100.0
62458;BME280;48509;52.122;5.250;2023-02-24T00:05:48;101631.0;;;3.07;100.0
62458;BME280;48509;52.122;5.250;2023-02-24T00:09:01;101632.0;;;3.23;100.0
62458;BME280;48509;52.122;5.250;2023-02-24T00:10:38;101630.0;;;3.09;100.0
62458;BME280;48509;52.122;5.250;2023-02-24T00:12:15;101625.0;;;3.01;100.0
62458;BME280;48509;52.122;5.250;2023-02-24T00:13:51;101616.0;;;2.79;100.0
62458;BME280;48509;52.122;5.250;2023-02-24T00:17:04;101621.0;;;3.13;100.0
62458;BME280;48509;52.122;5.250;2023-02-24T00:18:41;101619.0;;;3.02;100.0
62458;BME280;48509;52.122;5.250;2023-02-24T00:20:19;101617.0;;;3.13;100.0
62458;BME280;48509;52.122;5.250;2023-02-24T00:23:32;101613.0;;;3.01;100.0
62458;BME280;48509;52.122;5.250;2023-02-24T00:25:09;101603.0;;;2.91;100.0
62458;BME280;48509;52.122;5.250;2023-02-24T00:26:50;101597.0;;;2.67;100.0
62458;BME280;48509;52.122;5.250;2023-02-24T00:28:28;101597.0;;;2.78;100.0
62458;BME280;48509;52.122;5.250;2023-02-24T00:31:43;101590.0;;;2.89;100.0
62458;BME280;48509;52.122;5.250;2023-02-24T00:33:19;101592.0;;;3.03;100.0
62458;BME280;48509;52.122;5.250;2023-02-24T00:34:55;101588.0;;;2.78;100.0
62458;BME280;48509;52.122;5.250;2023-02-24T00:38:08;101591.0;;;2.93;100.0
62458;BME280;48509;52.122;5.250;2023-02-24T00:39:44;101590.0;;;2.67;100.0
62458;BME280;48509;52.122;5.250;2023-02-24T00:41:22;101587.0;;;2.93;100.0
62458;BME280;48509;52.122;5.250;2023-02-24T00:44:38;101587.0;;;2.76;100.0
62458;BME280;48509;52.122;5.250;2023-02-24T00:46:16;101581.0;;;3.04;100.0
62458;BME280;48509;52.122;5.250;2023-02-24T00:47:53;101584.0;;;2.75;100.0
62458;BME280;48509;52.122;5.250;2023-02-24T00:49:30;101577.0;;;2.72;100.0
62458;BME280;48509;52.122;5.250;2023-02-24T00:52:47;101576.0;;;2.52;100.0
62458;BME280;48509;52.122;5.250;2023-02-24T00:54:24;101570.0;;;2.46;100.0
62458;BME280;48509;52.122;5.250;2023-02-24T00:56:01;101568.0;;;2.52;100.0
62458;BME280;48509;52.122;5.250;2023-02-24T00:59:15;101564.0;;;2.48;100.0
62458;BME280;48509;52.122;5.250;2023-02-24T01:00:52;101563.0;;;2.5;100.0
62458;BME280;48509;52.122;5.250;2023-02-24T01:02:28;101564.0;;;2.32;100.0
62458;BME280;48509;52.122;5.250;2023-02-24T01:04:05;101563.0;;;2.62;100.0
62458;BME280;48509;52.122;5.250;2023-02-24T01:07:18;101557.0;;;2.46;100.0
62458;BME280;48509;52.122;5.250;2023-02-24T01:08:56;101553.0;;;2.27;100.0
62458;BME280;48509;52.122;5.250;2023-02-24T01:10:34;101547.0;;;2.17;100.0
62458;BME280;48509;52.122;5.250;2023-02-24T01:13:48;101546.0;;;2.1;100.0
62458;BME280;48509;52.122;5.250;2023-02-24T01:15:24;101542.0;;;2.23;100.0
62458;BME280;48509;52.122;5.250;2023-02-24T01:17:01;101538.0;;;2.29;100.0
62458;BME280;48509;52.122;5.250;2023-02-24T01:18:39;101532.0;;;2.21;100.0
62458;BME280;48509;52.122;5.250;2023-02-24T01:21:52;101528.0;;;2.17;100.0
62458;BME280;48509;52.122;5.250;2023-02-24T01:23:29;101523.0;;;2.21;100.0
62458;BME280;48509;52.122;5.250;2023-02-24T01:25:05;101523.0;;;2.07;100.0
62458;BME280;48509;52.122;5.250;2023-02-24T01:28:19;101522.0;;;2.04;100.0
62458;BME280;48509;52.122;5.250;2023-02-24T01:29:55;101515.0;;;2.15;100.0
62458;BME280;48509;52.122;5.250;2023-02-24T01:31:31;101512.0;;;2.02;100.0
62458;BME280;48509;52.122;5.250;2023-02-24T01:34:44;101508.0;;;1.99;100.0
62458;BME280;48509;52.122;5.250;2023-02-24T01:36:23;101500.0;;;2.14;100.0
62458;BME280;48509;52.122;5.250;2023-02-24T01:38:00;101500.0;;;1.95;100.0
62458;BME280;48509;52.122;5.250;2023-02-24T01:39:36;101493.0;;;1.93;100.0
62458;BME280;48509;52.122;5.250;2023-02-24T01:42:52;101486.0;;;1.82;100.0
62458;BME280;48509;52.122;5.250;2023-02-24T01:45:33;101487.0;;;1.78;100.0
62458;BME280;48509;52.122;5.250;2023-02-24T01:47:10;101480.0;;;1.86;100.0
62458;BME280;48509;52.122;5.250;2023-02-24T01:48:47;101477.0;;;1.76;100.0
62458;BME280;48509;52.122;5.250;2023-02-24T01:50:23;101469.0;;;1.97;100.0
62458;BME280;48509;52.122;5.250;2023-02-24T01:53:45;101462.0;;;2.06;100.0
62458;BME280;48509;52.122;5.250;2023-02-24T01:55:25;101455.0;;;2.08;100.0
62458;BME280;48509;52.122;5.250;2023-02-24T01:57:04;101455.0;;;2.04;100.0
62458;BME280;48509;52.122;5.250;2023-02-24T01:58:42;101455.0;;;2.06;100.0
62458;BME280;48509;52.122;5.250;2023-02-24T02:01:57;101453.0;;;1.96;100.0
62458;BME280;48509;52.122;5.250;2023-02-24T02:03:39;101455.0;;;1.9;100.0
62458;BME280;48509;52.122;5.250;2023-02-24T02:05:16;101443.0;;;2.33;100.0
62458;BME280;48509;52.122;5.250;2023-02-24T02:06:53;101449.0;;;2.19;100.0
62458;BME280;48509;52.122;5.250;2023-02-24T02:10:09;101450.0;;;2.32;100.0
62458;BME280;48509;52.122;5.250;2023-02-24T02:11:47;101446.0;;;2.12;100.0
62458;BME280;48509;52.122;5.250;2023-02-24T02:13:25;101447.0;;;2.36;100.0
62458;BME280;48509;52.122;5.250;2023-02-24T02:16:55;101443.0;;;2.42;100.0
62458;BME280;48509;52.122;5.250;2023-02-24T02:18:46;101445.0;;;2.06;100.0
62458;BME280;48509;52.122;5.250;2023-02-24T02:20:42;101438.0;;;2.1;100.0
62458;BME280;48509;52.122;5.250;2023-02-24T02:22:48;101438.0;;;2.04;100.0
62458;BME280;48509;52.122;5.250;2023-02-24T02:25:17;101438.0;;;2.02;100.0
62458;BME280;48509;52.122;5.250;2023-02-24T02:27:13;101433.0;;;1.97;100.0
62458;BME280;48509;52.122;5.250;2023-02-24T02:29:48;101427.0;;;1.95;100.0
62458;BME280;48509;52.122;5.250;2023-02-24T02:33:26;101424.0;;;2.0;100.0
62458;BME280;48509;52.122;5.250;2023-02-24T02:36:31;101410.0;;;1.75;100.0
62458;BME280;48509;52.122;5.250;2023-02-24T02:38:15;101398.0;;;1.81;100.0
62458;BME280;48509;52.122;5.250;2023-02-24T02:41:48;101397.0;;;1.9;100.0
62458;BME280;48509;52.122;5.250;2023-02-24T02:43:31;101394.0;;;2.07;100.0
62458;BME280;48509;52.122;5.250;2023-02-24T02:45:17;101390.0;;;2.07;100.0
62458;BME280;48509;52.122;5.250;2023-02-24T02:47:00;101387.0;;;2.06;100.0
62458;BME280;48509;52.122;5.250;2023-02-24T02:48:46;101390.0;;;1.87;100.0
62458;BME280;48509;52.122;5.250;2023-02-24T02:52:13;101388.0;;;1.82;100.0
62458;BME280;48509;52.122;5.250;2023-02-24T02:53:58;101390.0;;;2.08;100.0
62458;BME280;48509;52.122;5.250;2023-02-24T02:55:40;101387.0;;;1.99;100.0
62458;BME280;48509;52.122;5.250;2023-02-24T02:57:22;101386.0;;;1.98;100.0
62458;BME280;48509;52.122;5.250;2023-02-24T03:00:40;101384.0;;;1.81;100.0
62458;BME280;48509;52.122;5.250;2023-02-24T03:02:20;101384.0;;;1.78;100.0
62458;BME280;48509;52.122;5.250;2023-02-24T03:04:03;101385.0;;;1.9;100.0
62458;BME280;48509;52.122;5.250;2023-02-24T03:05:46;101375.0;;;2.05;100.0
62458;BME280;48509;52.122;5.250;2023-02-24T03:07:27;101368.0;;;1.97;100.0
62458;BME280;48509;52.122;5.250;2023-02-24T03:10:50;101365.0;;;1.87;100.0
62458;BME280;48509;52.122;5.250;2023-02-24T03:12:30;101361.0;;;1.85;100.0
62458;BME280;48509;52.122;5.250;2023-02-24T03:14:10;101355.0;;;2.02;100.0
62458;BME280;48509;52.122;5.250;2023-02-24T03:15:51;101350.0;;;2.23;100.0
62458;BME280;48509;52.122;5.250;2023-02-24T03:19:15;101353.0;;;2.09;100.0
62458;BME280;48509;52.122;5.250;2023-02-24T03:20:56;101349.0;;;2.07;100.0
62458;BME280;48509;52.122;5.250;2023-02-24T03:22:40;101348.0;;;2.11;100.0
62458;BME280;48509;52.122;5.250;2023-02-24T03:24:20;101347.0;;;1.9;100.0
62458;BME280;48509;52.122;5.250;2023-02-24T03:27:44;101338.0;;;1.87;100.0
62458;BME280;48509;52.122;5.250;2023-02-24T03:29:28;101337.0;;;2.09;100.0
62458;BME280;48509;52.122;5.250;2023-02-24T03:31:15;101332.0;;;2.25;100.0
62458;BME280;48509;52.122;5.250;2023-02-24T03:32:55;101330.0;;;2.31;100.0
62458;BME280;48509;52.122;5.250;2023-02-24T03:34:44;101327.0;;;2.13;100.0
62458;BME280;48509;52.122;5.250;2023-02-24T03:38:01;101327.0;;;2.21;100.0
62458;BME280;48509;52.122;5.250;2023-02-24T03:39:38;101323.0;;;2.04;100.0
62458;BME280;48509;52.122;5.250;2023-02-24T03:41:15;101318.0;;;2.31;100.0
62458;BME280;48509;52.122;5.250;2023-02-24T03:44:35;101318.0;;;2.37;100.0
62458;BME280;48509;52.122;5.250;2023-02-24T03:46:13;101319.0;;;2.31;100.0
62458;BME280;48509;52.122;5.250;2023-02-24T03:47:50;101318.0;;;2.19;100.0
62458;BME280;48509;52.122;5.250;2023-02-24T03:49:26;101314.0;;;2.33;100.0
62458;BME280;48509;52.122;5.250;2023-02-24T03:52:43;101317.0;;;2.23;100.0
62458;BME280;48509;52.122;5.250;2023-02-24T03:54:42;101312.0;;;2.19;100.0
62458;BME280;48509;52.122;5.250;2023-02-24T03:56:32;101311.0;;;2.07;100.0
62458;BME280;48509;52.122;5.250;2023-02-24T03:58:17;101310.0;;;2.12;100.0
62458;BME280;48509;52.122;5.250;2023-02-24T04:00:04;101310.0;;;2.19;100.0
62458;BME280;48509;52.122;5.250;2023-02-24T04:03:33;101300.0;;;2.19;100.0
62458;BME280;48509;52.122;5.250;2023-02-24T04:05:16;101296.0;;;2.42;100.0
62458;BME280;48509;52.122;5.250;2023-02-24T04:06:58;101297.0;;;2.32;100.0
62458;BME280;48509;52.122;5.250;2023-02-24T04:08:40;101293.0;;;2.31;100.0
62458;BME280;48509;52.122;5.250;2023-02-24T04:10:23;101294.0;;;2.38;100.0
62458;BME280;48509;52.122;5.250;2023-02-24T04:13:48;101295.0;;;2.34;100.0
62458;BME280;48509;52.122;5.250;2023-02-24T04:15:29;101294.0;;;2.29;100.0
62458;BME280;48509;52.122;5.250;2023-02-24T04:17:14;101290.0;;;2.23;100.0
62458;BME280;48509;52.122;5.250;2023-02-24T04:18:57;101282.0;;;2.38;100.0
62458;BME280;48509;52.122;5.250;2023-02-24T04:22:16;101283.0;;;2.44;100.0
62458;BME280;48509;52.122;5.250;2023-02-24T04:23:56;101280.0;;;2.61;100.0
62458;BME280;48509;52.122;5.250;2023-02-24T04:25:35;101276.0;;;2.48;100.0
62458;BME280;48509;52.122;5.250;2023-02-24T04:27:14;101270.0;;;2.5;100.0
62458;BME280;48509;52.122;5.250;2023-02-24T04:30:33;101271.0;;;2.59;100.0
62458;BME280;48509;52.122;5.250;2023-02-24T04:32:13;101263.0;;;2.75;100.0
62458;BME280;48509;52.122;5.250;2023-02-24T04:33:51;101260.0;;;2.71;100.0
62458;BME280;48509;52.122;5.250;2023-02-24T04:35:27;101250.0;;;2.81;100.0
62458;BME280;48509;52.122;5.250;2023-02-24T04:38:39;101241.0;;;2.78;100.0
62458;BME280;48509;52.122;5.250;2023-02-24T04:40:17;101239.0;;;2.97;100.0
62458;BME280;48509;52.122;5.250;2023-02-24T04:41:55;101230.0;;;2.82;100.0
62458;BME280;48509;52.122;5.250;2023-02-24T04:45:07;101224.0;;;2.84;100.0
62458;BME280;48509;52.122;5.250;2023-02-24T04:46:44;101224.0;;;2.94;100.0
62458;BME280;48509;52.122;5.250;2023-02-24T04:48:21;101220.0;;;3.02;100.0
62458;BME280;48509;52.122;5.250;2023-02-24T04:49:57;101216.0;;;2.94;100.0
62458;BME280;48509;52.122;5.250;2023-02-24T04:53:12;101220.0;;;2.91;100.0
62458;BME280;48509;52.122;5.250;2023-02-24T04:54:49;101218.0;;;3.19;100.0
62458;BME280;48509;52.122;5.250;2023-02-24T04:56:25;101222.0;;;2.99;100.0
62458;BME280;48509;52.122;5.250;2023-02-24T04:59:38;101222.0;;;2.98;100.0
62458;BME280;48509;52.122;5.250;2023-02-24T05:01:14;101225.0;;;2.94;100.0
62458;BME280;48509;52.122;5.250;2023-02-24T05:02:53;101219.0;;;2.85;100.0
62458;BME280;48509;52.122;5.250;2023-02-24T05:06:13;101213.0;;;2.83;100.0
62458;BME280;48509;52.122;5.250;2023-02-24T05:07:50;101200.0;;;2.77;100.0
62458;BME280;48509;52.122;5.250;2023-02-24T05:09:26;101205.0;;;2.81;100.0
62458;BME280;48509;52.122;5.250;2023-02-24T05:11:02;101208.0;;;2.91;100.0
62458;BME280;48509;52.122;5.250;2023-02-24T05:14:16;101202.0;;;2.82;100.0
62458;BME280;48509;52.122;5.250;2023-02-24T05:15:55;101186.0;;;2.81;100.0
62458;BME280;48509;52.122;5.250;2023-02-24T05:17:33;101188.0;;;2.82;100.0
62458;BME280;48509;52.122;5.250;2023-02-24T05:20:50;101188.0;;;2.82;100.0
62458;BME280;48509;52.122;5.250;2023-02-24T05:22:28;101181.0;;;2.97;100.0
62458;BME280;48509;52.122;5.250;2023-02-24T05:24:04;101180.0;;;2.93;100.0
62458;BME280;48509;52.122;5.250;2023-02-24T05:25:40;101177.0;;;2.97;100.0
62458;BME280;48509;52.122;5.250;2023-02-24T05:28:54;101171.0;;;3.08;100.0
62458;BME280;48509;52.122;5.250;2023-02-24T05:30:31;101166.0;;;3.01;100.0
62458;BME280;48509;52.122;5.250;2023-02-24T05:32:08;101161.0;;;3.04;100.0
62458;BME280;48509;52.122;5.250;2023-02-24T05:35:24;101158.0;;;3.14;100.0
62458;BME280;48509;52.122;5.250;2023-02-24T05:37:01;101156.0;;;3.17;100.0
62458;BME280;48509;52.122;5.250;2023-02-24T05:38:38;101152.0;;;3.16;100.0
62458;BME280;48509;52.122;5.250;2023-02-24T05:40:14;101144.0;;;3.23;100.0
62458;BME280;48509;52.122;5.250;2023-02-24T05:43:29;101137.0;;;3.17;100.0
62458;BME280;48509;52.122;5.250;2023-02-24T05:45:07;101133.0;;;3.3;100.0
62458;BME280;48509;52.122;5.250;2023-02-24T05:46:45;101132.0;;;3.37;100.0
62458;BME280;48509;52.122;5.250;2023-02-24T05:49:56;101122.0;;;3.38;100.0
62458;BME280;48509;52.122;5.250;2023-02-24T05:51:32;101117.0;;;3.37;100.0
62458;BME280;48509;52.122;5.250;2023-02-24T05:53:09;101106.0;;;3.58;100.0
62458;BME280;48509;52.122;5.250;2023-02-24T05:56:22;101101.0;;;3.65;100.0
62458;BME280;48509;52.122;5.250;2023-02-24T05:57:57;101094.0;;;3.74;100.0
62458;BME280;48509;52.122;5.250;2023-02-24T05:59:34;101093.0;;;3.74;100.0
62458;BME280;48509;52.122;5.250;2023-02-24T06:01:10;101090.0;;;3.9;100.0
62458;BME280;48509;52.122;5.250;2023-02-24T06:04:23;101091.0;;;3.92;100.0
62458;BME280;48509;52.122;5.250;2023-02-24T06:05:59;101092.0;;;3.96;100.0
62458;BME280;48509;52.122;5.250;2023-02-24T06:07:36;101081.0;;;3.99;100.0
62458;BME280;48509;52.122;5.250;2023-02-24T06:10:48;101080.0;;;4.0;100.0
62458;BME280;48509;52.122;5.250;2023-02-24T06:12:27;101075.0;;;4.05;100.0
62458;BME280;48509;52.122;5.250;2023-02-24T06:14:04;101069.0;;;3.99;100.0
62458;BME280;48509;52.122;5.250;2023-02-24T06:17:17;101066.0;;;4.03;100.0
62458;BME280;48509;52.122;5.250;2023-02-24T06:18:53;101067.0;;;4.17;100.0
62458;BME280;48509;52.122;5.250;2023-02-24T06:20:29;101065.0;;;4.32;100.0
62458;BME280;48509;52.122;5.250;2023-02-24T06:22:06;101069.0;;;4.38;100.0
62458;BME280;48509;52.122;5.250;2023-02-24T06:25:18;101065.0;;;4.38;100.0
62458;BME280;48509;52.122;5.250;2023-02-24T06:26:55;101067.0;;;4.41;100.0
62458;BME280;48509;52.122;5.250;2023-02-24T06:28:32;101061.0;;;4.45;100.0
62458;BME280;48509;52.122;5.250;2023-02-24T06:31:46;101057.0;;;4.54;99.76
62458;BME280;48509;52.122;5.250;2023-02-24T06:33:22;101055.0;;;4.59;100.0
62458;BME280;48509;52.122;5.250;2023-02-24T06:34:58;101056.0;;;4.53;100.0
62458;BME280;48509;52.122;5.250;2023-02-24T06:38:12;101052.0;;;4.59;98.34
62458;BME280;48509;52.122;5.250;2023-02-24T06:39:48;101048.0;;;4.67;99.61
62458;BME280;48509;52.122;5.250;2023-02-24T06:41:24;101051.0;;;4.8;98.26
62458;BME280;48509;52.122;5.250;2023-02-24T06:43:00;101045.0;;;4.87;97.61
62458;BME280;48509;52.122;5.250;2023-02-24T06:46:15;101038.0;;;4.88;96.54
62458;BME280;48509;52.122;5.250;2023-02-24T06:47:51;101036.0;;;4.95;96.67
62458;BME280;48509;52.122;5.250;2023-02-24T06:49:28;101032.0;;;4.87;98.02
62458;BME280;48509;52.122;5.250;2023-02-24T06:52:49;101021.0;;;5.03;97.31
62458;BME280;48509;52.122;5.250;2023-02-24T06:54:26;101022.0;;;5.05;96.7
62458;BME280;48509;52.122;5.250;2023-02-24T06:56:04;101022.0;;;5.08;96.2
62458;BME280;48509;52.122;5.250;2023-02-24T06:57:41;101026.0;;;5.34;96.01
62458;BME280;48509;52.122;5.250;2023-02-24T07:00:53;101017.0;;;5.47;94.51
62458;BME280;48509;52.122;5.250;2023-02-24T07:02:29;101024.0;;;5.24;95.07
62458;BME280;48509;52.122;5.250;2023-02-24T07:04:05;101022.0;;;5.39;94.26
62458;BME280;48509;52.122;5.250;2023-02-24T07:07:21;101024.0;;;5.43;93.39
62458;BME280;48509;52.122;5.250;2023-02-24T07:08:57;101019.0;;;5.41;93.81
62458;BME280;48509;52.122;5.250;2023-02-24T07:10:34;101010.0;;;5.29;93.01
62458;BME280;48509;52.122;5.250;2023-02-24T07:12:10;100993.0;;;5.32;93.4
62458;BME280;48509;52.122;5.250;2023-02-24T07:15:23;100996.0;;;5.43;95.13
62458;BME280;48509;52.122;5.250;2023-02-24T07:17:00;100996.0;;;5.42;95.32
62458;BME280;48509;52.122;5.250;2023-02-24T07:18:37;101002.0;;;5.48;94.18
62458;BME280;48509;52.122;5.250;2023-02-24T07:21:50;100999.0;;;5.61;94.2
62458;BME280;48509;52.122;5.250;2023-02-24T07:23:31;100993.0;;;5.66;93.02
62458;BME280;48509;52.122;5.250;2023-02-24T07:25:07;100997.0;;;5.91;92.63
62458;BME280;48509;52.122;5.250;2023-02-24T07:28:19;100995.0;;;5.78;92.61
62458;BME280;48509;52.122;5.250;2023-02-24T07:29:55;100990.0;;;5.8;93.53
62458;BME280;48509;52.122;5.250;2023-02-24T07:31:31;100991.0;;;5.74;92.39
62458;BME280;48509;52.122;5.250;2023-02-24T07:33:07;100989.0;;;5.77;92.5
62458;BME280;48509;52.122;5.250;2023-02-24T07:36:19;100984.0;;;5.92;92.46
62458;BME280;48509;52.122;5.250;2023-02-24T07:37:55;100980.0;;;6.05;92.09
62458;BME280;48509;52.122;5.250;2023-02-24T07:39:33;100984.0;;;6.02;91.84
62458;BME280;48509;52.122;5.250;2023-02-24T07:42:48;100980.0;;;5.95;91.61
62458;BME280;48509;52.122;5.250;2023-02-24T07:44:24;100970.0;;;5.97;93.12
62458;BME280;48509;52.122;5.250;2023-02-24T07:46:05;100974.0;;;6.05;93.07
62458;BME280;48509;52.122;5.250;2023-02-24T07:49:20;100970.0;;;5.91;91.18
62458;BME280;48509;52.122;5.250;2023-02-24T07:50:57;100968.0;;;5.95;92.02
62458;BME280;48509;52.122;5.250;2023-02-24T07:52:33;100964.0;;;5.99;93.65
62458;BME280;48509;52.122;5.250;2023-02-24T07:54:10;100963.0;;;6.15;92.94
62458;BME280;48509;52.122;5.250;2023-02-24T07:57:22;100955.0;;;6.11;92.71
62458;BME280;48509;52.122;5.250;2023-02-24T07:59:00;100956.0;;;6.13;93.9
62458;BME280;48509;52.122;5.250;2023-02-24T08:00:37;100956.0;;;6.24;92.5
62458;BME280;48509;52.122;5.250;2023-02-24T08:03:51;100959.0;;;6.3;92.48
62458;BME280;48509;52.122;5.250;2023-02-24T08:05:28;100957.0;;;6.29;92.11
62458;BME280;48509;52.122;5.250;2023-02-24T08:07:04;100959.0;;;6.24;92.3
62458;BME280;48509;52.122;5.250;2023-02-24T08:08:41;100959.0;;;6.29;93.44
62458;BME280;48509;52.122;5.250;2023-02-24T08:11:55;100958.0;;;6.34;93.47
62458;BME280;48509;52.122;5.250;2023-02-24T08:13:31;100956.0;;;6.28;94.13
62458;BME280;48509;52.122;5.250;2023-02-24T08:15:08;100953.0;;;6.42;93.57
62458;BME280;48509;52.122;5.250;2023-02-24T08:18:25;100951.0;;;6.43;94.59
62458;BME280;48509;52.122;5.250;2023-02-24T08:20:01;100942.0;;;6.54;94.76
62458;BME280;48509;52.122;5.250;2023-02-24T08:21:38;100938.0;;;6.43;94.42
62458;BME280;48509;52.122;5.250;2023-02-24T08:24:53;100941.0;;;6.58;95.4
62458;BME280;48509;52.122;5.250;2023-02-24T08:26:29;100939.0;;;6.55;94.94
62458;BME280;48509;52.122;5.250;2023-02-24T08:28:07;100924.0;;;6.52;96.26
62458;BME280;48509;52.122;5.250;2023-02-24T08:29:47;100914.0;;;6.54;95.87
62458;BME280;48509;52.122;5.250;2023-02-24T08:33:00;100914.0;;;6.5;96.64
62458;BME280;48509;52.122;5.250;2023-02-24T08:34:36;100921.0;;;6.64;96.51
62458;BME280;48509;52.122;5.250;2023-02-24T08:36:14;100920.0;;;6.53;96.48
62458;BME280;48509;52.122;5.250;2023-02-24T08:39:30;100902.0;;;6.6;96.66
62458;BME280;48509;52.122;5.250;2023-02-24T08:41:11;100902.0;;;6.46;97.21
62458;BME280;48509;52.122;5.250;2023-02-24T08:42:48;100896.0;;;6.34;97.71
62458;BME280;48509;52.122;5.250;2023-02-24T08:44:24;100900.0;;;6.58;98.72
62458;BME280;48509;52.122;5.250;2023-02-24T08:47:48;100902.0;;;6.61;98.12
62458;BME280;48509;52.122;5.250;2023-02-24T08:49:24;100906.0;;;6.61;98.32
62458;BME280;48509;52.122;5.250;2023-02-24T08:51:03;100911.0;;;6.52;98.98
62458;BME280;48509;52.122;5.250;2023-02-24T08:52:41;100905.0;;;6.75;98.93
62458;BME280;48509;52.122;5.250;2023-02-24T08:55:59;100901.0;;;6.76;97.85
62458;BME280;48509;52.122;5.250;2023-02-24T08:57:35;100899.0;;;6.64;97.78
62458;BME280;48509;52.122;5.250;2023-02-24T08:59:12;100892.0;;;6.56;100.0
62458;BME280;48509;52.122;5.250;2023-02-24T09:02:25;100885.0;;;6.42;100.0
62458;BME280;48509;52.122;5.250;2023-02-24T09:04:04;100880.0;;;6.53;100.0
62458;BME280;48509;52.122;5.250;2023-02-24T09:05:42;100877.0;;;6.53;100.0
62458;BME280;48509;52.122;5.250;2023-02-24T09:07:20;100873.0;;;6.63;99.43
62458;BME280;48509;52.122;5.250;2023-02-24T09:10:33;100872.0;;;6.72;100.0
62458;BME280;48509;52.122;5.250;2023-02-24T09:12:11;100872.0;;;6.85;98.91
62458;BME280;48509;52.122;5.250;2023-02-24T09:13:48;100869.0;;;6.86;100.0
62458;BME280;48509;52.122;5.250;2023-02-24T09:17:02;100868.0;;;6.9;100.0
62458;BME280;48509;52.122;5.250;2023-02-24T09:18:40;100867.0;;;6.77;100.0
62458;BME280;48509;52.122;5.250;2023-02-24T09:20:18;100860.0;;;6.7;100.0
62458;BME280;48509;52.122;5.250;2023-02-24T09:21:55;100852.0;;;6.77;100.0
62458;BME280;48509;52.122;5.250;2023-02-24T09:25:09;100842.0;;;6.72;100.0
62458;BME280;48509;52.122;5.250;2023-02-24T09:26:48;100839.0;;;6.89;100.0
62458;BME280;48509;52.122;5.250;2023-02-24T09:28:25;100836.0;;;6.87;100.0
62458;BME280;48509;52.122;5.250;2023-02-24T09:31:40;100830.0;;;6.89;100.0
62458;BME280;48509;52.122;5.250;2023-02-24T09:33:17;100822.0;;;6.95;100.0
62458;BME280;48509;52.122;5.250;2023-02-24T09:34:55;100820.0;;;6.93;100.0
62458;BME280;48509;52.122;5.250;2023-02-24T09:36:31;100824.0;;;7.08;100.0
62458;BME280;48509;52.122;5.250;2023-02-24T09:39:43;100820.0;;;6.94;100.0
62458;BME280;48509;52.122;5.250;2023-02-24T09:41:25;100818.0;;;7.03;100.0
62458;BME280;48509;52.122;5.250;2023-02-24T09:43:03;100818.0;;;7.19;100.0
62458;BME280;48509;52.122;5.250;2023-02-24T09:46:19;100811.0;;;6.99;100.0
62458;BME280;48509;52.122;5.250;2023-02-24T09:47:55;100817.0;;;7.05;100.0
62458;BME280;48509;52.122;5.250;2023-02-24T09:49:38;100812.0;;;6.98;100.0
62458;BME280;48509;52.122;5.250;2023-02-24T09:51:19;100809.0;;;6.96;100.0
62458;BME280;48509;52.122;5.250;2023-02-24T09:54:36;100807.0;;;7.14;100.0
62458;BME280;48509;52.122;5.250;2023-02-24T09:56:16;100807.0;;;7.18;100.0
62458;BME280;48509;52.122;5.250;2023-02-24T09:58:00;100806.0;;;7.13;100.0
62458;BME280;48509;52.122;5.250;2023-02-24T09:59:47;100805.0;;;7.01;100.0
62458;BME280;48509;52.122;5.250;2023-02-24T10:03:18;100795.0;;;7.07;100.0
62458;BME280;48509;52.122;5.250;2023-02-24T10:04:59;100790.0;;;7.14;100.0
62458;BME280;48509;52.122;5.250;2023-02-24T10:06:44;100789.0;;;7.26;100.0
62458;BME280;48509;52.122;5.250;2023-02-24T10:08:28;100783.0;;;7.17;100.0
62458;BME280;48509;52.122;5.250;2023-02-24T10:10:13;100776.0;;;7.01;100.0
62458;BME280;48509;52.122;5.250;2023-02-24T10:13:32;100786.0;;;7.05;100.0
62458;BME280;48509;52.122;5.250;2023-02-24T10:15:13;100780.0;;;7.02;100.0
62458;BME280;48509;52.122;5.250;2023-02-24T10:16:51;100782.0;;;7.08;100.0
62458;BME280;48509;52.122;5.250;2023-02-24T10:18:32;100784.0;;;7.17;100.0
62458;BME280;48509;52.122;5.250;2023-02-24T10:21:57;100774.0;;;7.17;100.0
62458;BME280;48509;52.122;5.250;2023-02-24T10:23:47;100781.0;;;7.37;100.0
62458;BME280;48509;52.122;5.250;2023-02-24T10:25:41;100781.0;;;7.15;100.0
62458;BME280;48509;52.122;5.250;2023-02-24T10:27:22;100778.0;;;7.15;100.0
62458;BME280;48509;52.122;5.250;2023-02-24T10:29:06;100780.0;;;7.17;100.0
62458;BME280;48509;52.122;5.250;2023-02-24T10:32:43;100770.0;;;7.08;100.0
62458;BME280;48509;52.122;5.250;2023-02-24T10:34:24;100764.0;;;7.1;100.0
62458;BME280;48509;52.122;5.250;2023-02-24T10:36:08;100761.0;;;7.23;100.0
62458;BME280;48509;52.122;5.250;2023-02-24T10:37:46;100765.0;;;7.14;100.0
62458;BME280;48509;52.122;5.250;2023-02-24T10:39:24;100763.0;;;7.27;100.0
62458;BME280;48509;52.122;5.250;2023-02-24T10:42:38;100758.0;;;7.18;100.0
62458;BME280;48509;52.122;5.250;2023-02-24T10:44:20;100758.0;;;7.25;100.0
62458;BME280;48509;52.122;5.250;2023-02-24T10:45:58;100751.0;;;7.37;100.0
62458;BME280;48509;52.122;5.250;2023-02-24T10:49:14;100747.0;;;7.42;100.0
62458;BME280;48509;52.122;5.250;2023-02-24T10:50:55;100749.0;;;7.5;100.0
62458;BME280;48509;52.122;5.250;2023-02-24T10:52:33;100748.0;;;7.68;100.0
62458;BME280;48509;52.122;5.250;2023-02-24T10:54:13;100739.0;;;7.57;100.0
62458;BME280;48509;52.122;5.250;2023-02-24T10:57:41;100732.0;;;7.42;100.0
62458;BME280;48509;52.122;5.250;2023-02-24T10:59:18;100727.0;;;7.44;100.0
62458;BME280;48509;52.122;5.250;2023-02-24T11:01:04;100724.0;;;7.64;100.0
62458;BME280;48509;52.122;5.250;2023-02-24T11:02:46;100724.0;;;7.52;100.0
62458;BME280;48509;52.122;5.250;2023-02-24T11:04:33;100724.0;;;7.66;100.0
62458;BME280;48509;52.122;5.250;2023-02-24T11:08:14;100721.0;;;7.54;100.0
62458;BME280;48509;52.122;5.250;2023-02-24T11:10:11;100723.0;;;7.69;100.0
62458;BME280;48509;52.122;5.250;2023-02-24T11:11:49;100724.0;;;7.7;100.0
62458;BME280;48509;52.122;5.250;2023-02-24T11:13:25;100724.0;;;7.59;100.0
62458;BME280;48509;52.122;5.250;2023-02-24T11:15:05;100731.0;;;7.62;100.0
62458;BME280;48509;52.122;5.250;2023-02-24T11:18:30;100731.0;;;7.55;100.0
62458;BME280;48509;52.122;5.250;2023-02-24T11:20:20;100730.0;;;7.77;100.0